createdAt,value
2023-04-17T00:00:02.953Z,113.50
2023-04-17T00:01:02.872Z,112.10
2023-04-17T00:02:02.810Z,108.40
2023-04-17T00:03:02.900Z,110.20
2023-04-17T00:04:02.796Z,107.20
2023-04-17T00:05:02.647Z,108.00
2023-04-17T00:06:02.537Z,106.30
2023-04-17T00:07:02.486Z,107.30
2023-04-17T00:08:02.469Z,109.40
2023-04-17T00:09:02.324Z,108.90
2023-04-17T00:10:02.335Z,106.20
2023-04-17T00:11:07.575Z,111.00
2023-04-17T00:12:02.167Z,108.30
2023-04-17T00:13:02.125Z,107.00
2023-04-17T00:14:02.099Z,109.30
2023-04-17T00:15:01.997Z,108.60
2023-04-17T00:16:02.020Z,111.30
2023-04-17T00:17:01.966Z,109.30
2023-04-17T00:18:01.922Z,108.50
2023-04-17T00:19:19.081Z,111.50
2023-04-17T00:20:01.677Z,111.00
2023-04-17T00:21:01.637Z,109.70
2023-04-17T00:22:01.549Z,106.10
2023-04-17T00:23:01.454Z,108.30
2023-04-17T00:24:01.438Z,107.00
2023-04-17T00:25:36.090Z,107.30
2023-04-17T00:26:01.310Z,111.20
2023-04-17T00:27:01.236Z,111.70
2023-04-17T00:28:01.174Z,109.20
2023-04-17T00:29:01.100Z,110.50
2023-04-17T00:30:01.039Z,110.30
2023-04-17T00:31:00.973Z,112.00
2023-04-17T00:32:00.931Z,113.40
2023-04-17T00:33:00.856Z,109.10
2023-04-17T00:34:00.781Z,112.00
2023-04-17T00:35:00.730Z,108.80
2023-04-17T00:36:00.630Z,109.30
2023-04-17T00:38:10.164Z,104.80
2023-04-17T00:39:11.025Z,105.80
2023-04-17T00:40:10.686Z,107.70
2023-04-17T00:41:10.593Z,109.50
2023-04-17T00:42:10.558Z,111.00
2023-04-17T00:43:10.498Z,107.30
2023-04-17T00:44:10.653Z,104.80
2023-04-17T00:45:10.341Z,104.30
2023-04-17T00:46:10.348Z,102.90
2023-04-17T00:47:10.223Z,105.50
2023-04-17T00:48:10.207Z,99.70
2023-04-17T00:49:10.413Z,100.40
2023-04-17T00:50:10.033Z,100.30
2023-04-17T00:51:10.017Z,100.50
2023-04-17T00:52:09.959Z,95.70
2023-04-17T00:53:09.873Z,95.30
2023-04-17T00:54:09.797Z,95.60
2023-04-17T00:55:09.749Z,94.30
2023-04-17T00:57:49.059Z,88.20
2023-04-17T00:58:50.035Z,88.90
2023-04-17T00:59:49.928Z,89.90
2023-04-17T01:00:49.928Z,91.20
2023-04-17T01:01:49.824Z,90.80
2023-04-17T01:02:49.873Z,92.10
2023-04-17T01:03:49.935Z,88.30
2023-04-17T01:04:49.584Z,88.50
2023-04-17T01:05:49.548Z,89.50
2023-04-17T01:06:49.492Z,86.00
2023-04-17T01:07:49.397Z,85.30
2023-04-17T01:08:49.408Z,86.30
2023-04-17T01:09:49.325Z,86.70
2023-04-17T01:10:49.214Z,85.10
2023-04-17T01:11:49.139Z,83.50
2023-04-17T01:12:49.103Z,83.90
2023-04-17T01:13:49.056Z,82.90
2023-04-17T01:14:48.961Z,80.70
2023-04-17T01:15:48.924Z,80.30
2023-04-17T01:16:48.920Z,81.50
2023-04-17T01:17:48.810Z,82.20
2023-04-17T01:18:48.749Z,81.60
2023-04-17T01:19:48.693Z,81.50
2023-04-17T01:21:23.353Z,81.00
2023-04-17T01:21:48.536Z,81.50
2023-04-17T01:22:48.444Z,80.90
2023-04-17T01:23:48.421Z,79.50
2023-04-17T01:24:48.374Z,79.00
2023-04-17T01:25:48.285Z,82.50
2023-04-17T01:26:48.249Z,79.20
2023-04-17T01:27:48.154Z,74.90
2023-04-17T01:28:48.100Z,77.40
2023-04-17T01:29:48.073Z,73.90
2023-04-17T01:30:47.983Z,76.40
2023-04-17T01:31:47.905Z,76.40
2023-04-17T01:32:47.962Z,79.80
2023-04-17T01:33:47.767Z,79.60
2023-04-17T01:34:47.712Z,82.80
2023-04-17T01:35:47.677Z,81.00
2023-04-17T01:36:47.590Z,81.10
2023-04-17T01:37:47.524Z,82.40
2023-04-17T01:39:22.298Z,78.70
2023-04-17T01:39:47.406Z,79.10
2023-04-17T01:40:47.334Z,80.00
2023-04-17T01:41:47.271Z,79.00
2023-04-17T01:42:47.180Z,81.10
2023-04-17T01:43:47.148Z,80.40
2023-04-17T01:44:47.107Z,84.40
2023-04-17T01:45:47.066Z,84.10
2023-04-17T01:46:46.957Z,81.20
2023-04-17T01:47:46.940Z,81.30
2023-04-17T01:48:46.854Z,82.30
2023-04-17T01:49:46.777Z,83.20
2023-04-17T01:50:46.687Z,83.60
2023-04-17T01:51:46.675Z,82.30
2023-04-17T01:52:46.566Z,81.70
2023-04-17T01:53:46.493Z,79.30
2023-04-17T01:54:46.476Z,79.40
2023-04-17T01:55:46.384Z,79.30
2023-04-17T01:56:46.366Z,78.90
2023-04-17T01:57:46.261Z,75.40
2023-04-17T01:58:46.196Z,77.50
2023-04-17T01:59:46.105Z,82.00
2023-04-17T02:00:46.104Z,80.20
2023-04-17T02:01:46.094Z,78.70
2023-04-17T02:02:46.121Z,75.40
2023-04-17T02:03:46.081Z,77.00
2023-04-17T02:04:45.976Z,75.90
2023-04-17T02:05:45.723Z,74.50
2023-04-17T02:06:45.659Z,75.00
2023-04-17T02:07:45.653Z,76.90
2023-04-17T02:08:45.600Z,77.70
2023-04-17T02:09:45.496Z,77.20
2023-04-17T02:10:45.409Z,76.20
2023-04-17T02:11:45.409Z,77.30
2023-04-17T02:12:45.298Z,73.30
2023-04-17T02:13:45.247Z,74.00
2023-04-17T02:14:45.187Z,74.40
2023-04-17T02:15:45.141Z,74.50
2023-04-17T02:16:45.055Z,71.10
2023-04-17T02:17:45.053Z,71.70
2023-04-17T02:18:44.925Z,72.90
2023-04-17T02:19:44.860Z,71.50
2023-04-17T02:20:44.844Z,73.00
2023-04-17T02:21:44.760Z,71.60
2023-04-17T02:22:44.709Z,73.40
2023-04-17T02:23:44.647Z,73.00
2023-04-17T02:24:44.545Z,74.50
2023-04-17T02:25:44.511Z,75.40
2023-04-17T02:26:44.457Z,73.20
2023-04-17T02:27:44.404Z,75.30
2023-04-17T02:28:44.303Z,73.40
2023-04-17T02:29:44.230Z,76.50
2023-04-17T02:30:44.174Z,76.40
2023-04-17T02:31:44.170Z,75.80
2023-04-17T02:33:18.676Z,73.60
2023-04-17T02:33:43.979Z,74.70
2023-04-17T02:34:43.918Z,73.60
2023-04-17T02:35:43.862Z,75.90
2023-04-17T02:36:43.826Z,73.20
2023-04-17T02:37:43.701Z,71.60
2023-04-17T02:38:43.673Z,73.70
2023-04-17T02:39:43.649Z,74.20
2023-04-17T02:40:43.572Z,73.00
2023-04-17T02:41:43.501Z,73.00
2023-04-17T02:42:43.392Z,75.10
2023-04-17T02:43:43.374Z,72.30
2023-04-17T02:44:43.288Z,73.30
2023-04-17T02:45:43.228Z,74.40
2023-04-17T02:46:43.246Z,72.50
2023-04-17T02:47:43.210Z,70.30
2023-04-17T02:48:43.051Z,70.80
2023-04-17T02:49:42.954Z,70.60
2023-04-17T02:51:00.308Z,72.10
2023-04-17T02:51:42.878Z,74.90
2023-04-17T02:52:42.784Z,74.30
2023-04-17T02:53:42.697Z,72.90
2023-04-17T02:54:42.655Z,76.30
2023-04-17T02:55:42.615Z,73.60
2023-04-17T02:56:42.540Z,77.00
2023-04-17T02:57:42.494Z,78.90
2023-04-17T02:58:42.403Z,77.00
2023-04-17T02:59:42.314Z,78.30
2023-04-17T03:00:42.302Z,78.90
2023-04-17T03:01:42.226Z,78.50
2023-04-17T03:02:42.312Z,81.60
2023-04-17T03:03:42.517Z,78.40
2023-04-17T03:04:42.051Z,79.50
2023-04-17T03:05:41.991Z,79.50
2023-04-17T03:06:41.893Z,82.50
2023-04-17T03:07:41.811Z,80.40
2023-04-17T03:08:41.765Z,80.50
2023-04-17T03:09:41.708Z,79.40
2023-04-17T03:10:41.623Z,81.20
2023-04-17T03:11:41.586Z,81.50
2023-04-17T03:12:41.486Z,84.90
2023-04-17T03:13:41.456Z,78.80
2023-04-17T03:14:41.410Z,79.10
2023-04-17T03:15:41.325Z,81.00
2023-04-17T03:16:41.320Z,80.30
2023-04-17T03:17:41.290Z,79.80
2023-04-17T03:18:41.170Z,80.30
2023-04-17T03:19:41.099Z,82.90
2023-04-17T03:20:41.063Z,82.20
2023-04-17T03:21:40.925Z,80.70
2023-04-17T03:22:40.887Z,81.60
2023-04-17T03:23:40.824Z,83.70
2023-04-17T03:24:40.765Z,82.80
2023-04-17T03:25:40.675Z,83.60
2023-04-17T03:26:57.939Z,83.00
2023-04-17T03:27:40.584Z,84.30
2023-04-17T03:28:40.480Z,84.90
2023-04-17T03:29:40.445Z,84.30
2023-04-17T03:30:40.381Z,80.60
2023-04-17T03:31:40.384Z,83.40
2023-04-17T03:32:40.330Z,85.90
2023-04-17T03:33:40.221Z,83.50
2023-04-17T03:34:40.135Z,79.90
2023-04-17T03:35:40.042Z,79.70
2023-04-17T03:36:39.970Z,77.70
2023-04-17T03:37:39.936Z,77.10
2023-04-17T03:38:39.918Z,79.00
2023-04-17T03:39:39.816Z,78.80
2023-04-17T03:40:39.752Z,79.80
2023-04-17T03:41:39.668Z,81.70
2023-04-17T03:42:39.637Z,78.70
2023-04-17T03:43:39.541Z,82.40
2023-04-17T03:45:14.327Z,84.20
2023-04-17T03:45:39.473Z,84.10
2023-04-17T03:46:39.341Z,85.00
2023-04-17T03:47:39.352Z,87.90
2023-04-17T03:48:39.214Z,84.20
2023-04-17T03:49:39.182Z,82.40
2023-04-17T03:50:39.134Z,83.00
2023-04-17T03:51:39.063Z,83.40
2023-04-17T03:52:38.968Z,78.40
2023-04-17T03:53:38.910Z,81.40
2023-04-17T03:54:38.864Z,81.40
2023-04-17T03:55:38.792Z,82.30
2023-04-17T03:56:39.018Z,79.70
2023-04-17T03:57:38.689Z,79.80
2023-04-17T03:58:38.634Z,80.00
2023-04-17T03:59:38.547Z,83.30
2023-04-17T04:00:38.535Z,83.70
2023-04-17T04:01:38.366Z,84.00
2023-04-17T04:02:38.511Z,81.00
2023-04-17T04:03:38.471Z,84.90
2023-04-17T04:04:38.285Z,84.60
2023-04-17T04:05:38.121Z,88.30
2023-04-17T04:06:38.084Z,90.10
2023-04-17T04:07:37.997Z,86.90
2023-04-17T04:08:37.935Z,90.00
2023-04-17T04:09:37.852Z,90.10
2023-04-17T04:10:37.816Z,91.90
2023-04-17T04:11:37.763Z,92.00
2023-04-17T04:12:37.673Z,92.20
2023-04-17T04:13:37.617Z,90.20
2023-04-17T04:14:38.649Z,89.80
2023-04-17T04:15:37.528Z,89.90
2023-04-17T04:16:37.463Z,88.50
2023-04-17T04:17:37.392Z,89.30
2023-04-17T04:18:37.258Z,84.10
2023-04-17T04:19:37.215Z,83.70
2023-04-17T04:20:54.501Z,81.60
2023-04-17T04:21:37.070Z,81.20
2023-04-17T04:22:37.041Z,79.50
2023-04-17T04:23:36.999Z,81.10
2023-04-17T04:24:36.901Z,83.80
2023-04-17T04:25:36.867Z,81.80
2023-04-17T04:26:36.758Z,77.70
2023-04-17T04:27:36.697Z,79.10
2023-04-17T04:28:36.646Z,79.50
2023-04-17T04:29:36.580Z,79.60
2023-04-17T04:30:36.524Z,77.90
2023-04-17T04:31:36.490Z,79.00
2023-04-17T04:33:00.505Z,77.70
2023-04-17T04:33:36.328Z,80.60
2023-04-17T04:34:36.271Z,80.60
2023-04-17T04:35:37.258Z,81.60
2023-04-17T04:36:36.239Z,84.30
2023-04-17T04:37:36.102Z,84.50
2023-04-17T04:38:53.423Z,85.40
2023-04-17T04:39:35.947Z,83.00
2023-04-17T04:40:35.909Z,80.80
2023-04-17T04:41:35.848Z,83.60
2023-04-17T04:42:35.732Z,82.20
2023-04-17T04:43:35.681Z,85.10
2023-04-17T04:44:35.645Z,83.60
2023-04-17T04:45:35.600Z,81.40
2023-04-17T04:46:35.539Z,83.60
2023-04-17T04:47:35.452Z,82.20
2023-04-17T04:48:35.351Z,81.10
2023-04-17T04:49:35.311Z,82.10
2023-04-17T04:50:35.297Z,82.20
2023-04-17T04:51:35.184Z,82.70
2023-04-17T04:52:35.150Z,83.60
2023-04-17T04:53:35.062Z,83.40
2023-04-17T04:54:35.020Z,81.60
2023-04-17T04:55:34.953Z,82.90
2023-04-17T04:56:52.252Z,79.00
2023-04-17T04:57:34.805Z,81.80
2023-04-17T04:58:34.719Z,82.70
2023-04-17T04:59:34.837Z,80.60
2023-04-17T05:00:34.610Z,82.00
2023-04-17T05:01:34.599Z,83.20
2023-04-17T05:02:34.672Z,81.10
2023-04-17T05:03:34.575Z,78.00
2023-04-17T05:04:34.473Z,73.90
2023-04-17T05:05:34.301Z,71.90
2023-04-17T05:06:34.243Z,70.00
2023-04-17T05:07:34.185Z,71.80
2023-04-17T05:08:34.101Z,69.20
2023-04-17T05:09:34.043Z,70.20
2023-04-17T05:10:33.967Z,69.80
2023-04-17T05:11:33.918Z,70.90
2023-04-17T05:12:33.834Z,70.90
2023-04-17T05:13:33.769Z,66.70
2023-04-17T05:14:33.769Z,67.80
2023-04-17T05:15:33.665Z,67.30
2023-04-17T05:16:33.621Z,66.90
2023-04-17T05:17:33.579Z,62.80
2023-04-17T05:18:33.485Z,63.30
2023-04-17T05:19:33.410Z,64.20
2023-04-17T05:20:33.334Z,66.80
2023-04-17T05:21:33.257Z,64.60
2023-04-17T05:22:33.250Z,60.60
2023-04-17T05:23:33.134Z,62.80
2023-04-17T05:24:33.094Z,63.00
2023-04-17T05:25:33.033Z,61.10
2023-04-17T05:26:32.981Z,60.00
2023-04-17T05:27:32.907Z,59.80
2023-04-17T05:28:32.839Z,62.30
2023-04-17T05:29:32.753Z,61.90
2023-04-17T05:30:32.691Z,62.60
2023-04-17T05:31:32.697Z,62.70
2023-04-17T05:32:49.985Z,62.80
2023-04-17T05:33:32.529Z,59.20
2023-04-17T05:34:32.468Z,58.20
2023-04-17T05:35:32.397Z,55.30
2023-04-17T05:36:32.365Z,59.30
2023-04-17T05:37:32.280Z,59.00
2023-04-17T05:38:32.240Z,58.90
2023-04-17T05:39:32.121Z,56.60
2023-04-17T05:40:32.084Z,57.10
2023-04-17T05:41:32.055Z,59.80
2023-04-17T05:42:31.925Z,60.40
2023-04-17T05:43:31.899Z,62.80
2023-04-17T05:44:31.805Z,59.10
2023-04-17T05:45:31.783Z,60.00
2023-04-17T05:46:31.668Z,60.20
2023-04-17T05:47:31.680Z,59.90
2023-04-17T05:48:31.615Z,59.70
2023-04-17T05:49:31.545Z,57.30
2023-04-17T05:50:31.505Z,58.40
2023-04-17T05:51:31.411Z,61.30
2023-04-17T05:52:31.297Z,55.70
2023-04-17T05:53:31.263Z,56.60
2023-04-17T05:54:31.189Z,54.40
2023-04-17T05:55:31.141Z,54.20
2023-04-17T05:56:31.065Z,52.90
2023-04-17T05:57:31.013Z,52.40
2023-04-17T05:58:30.945Z,55.00
2023-04-17T05:59:30.907Z,56.10
2023-04-17T06:00:30.820Z,55.20
2023-04-17T06:01:30.722Z,53.80
2023-04-17T06:03:05.572Z,53.30
2023-04-17T06:03:30.804Z,51.80
2023-04-17T06:04:30.929Z,53.90
2023-04-17T06:05:30.680Z,55.70
2023-04-17T06:06:30.445Z,56.60
2023-04-17T06:07:30.340Z,55.90
2023-04-17T06:09:05.083Z,55.90
2023-04-17T06:09:30.217Z,50.10
2023-04-17T06:10:30.158Z,46.60
2023-04-17T06:11:30.090Z,49.70
2023-04-17T06:12:30.064Z,48.60
2023-04-17T06:13:31.436Z,49.80
2023-04-17T06:14:29.969Z,49.00
2023-04-17T06:15:29.859Z,48.00
2023-04-17T06:16:29.878Z,47.60
2023-04-17T06:17:29.773Z,47.90
2023-04-17T06:18:29.700Z,46.90
2023-04-17T06:19:29.581Z,48.50
2023-04-17T06:20:29.564Z,47.90
2023-04-17T06:21:29.486Z,47.40
2023-04-17T06:22:29.414Z,49.00
2023-04-17T06:23:29.363Z,49.70
2023-04-17T06:24:29.318Z,49.40
2023-04-17T06:25:29.203Z,48.20
2023-04-17T06:27:03.933Z,48.60
2023-04-17T06:27:29.116Z,50.60
2023-04-17T06:28:29.034Z,46.90
2023-04-17T06:29:28.968Z,52.00
2023-04-17T06:30:28.909Z,48.70
2023-04-17T06:31:28.928Z,50.20
2023-04-17T06:32:28.814Z,47.60
2023-04-17T06:33:28.711Z,50.50
2023-04-17T06:34:28.673Z,49.30
2023-04-17T06:35:28.612Z,51.80
2023-04-17T06:36:28.527Z,48.90
2023-04-17T06:37:28.431Z,48.10
2023-04-17T06:38:28.441Z,45.70
2023-04-17T06:39:28.367Z,47.80
2023-04-17T06:40:28.326Z,48.00
2023-04-17T06:41:28.179Z,47.80
2023-04-17T06:42:28.132Z,50.10
2023-04-17T06:43:28.105Z,47.00
2023-04-17T06:45:02.756Z,47.80
2023-04-17T06:45:27.959Z,48.50
2023-04-17T06:46:27.905Z,50.30
2023-04-17T06:47:27.858Z,50.80
2023-04-17T06:48:27.762Z,49.60
2023-04-17T06:49:27.720Z,51.10
2023-04-17T06:50:27.676Z,52.60
2023-04-17T06:51:27.538Z,50.10
2023-04-17T06:52:27.524Z,47.60
2023-04-17T06:53:27.459Z,49.80
2023-04-17T06:54:27.379Z,48.20
2023-04-17T06:55:27.315Z,48.50
2023-04-17T06:56:27.266Z,47.50
2023-04-17T06:57:27.177Z,42.00
2023-04-17T06:58:27.129Z,44.30
2023-04-17T06:59:27.097Z,43.70
2023-04-17T07:00:27.065Z,41.90
2023-04-17T07:01:26.970Z,43.30
2023-04-17T07:02:27.041Z,41.70
2023-04-17T07:03:26.856Z,43.30
2023-04-17T07:04:26.764Z,42.30
2023-04-17T07:05:26.644Z,40.50
2023-04-17T07:06:26.613Z,42.10
2023-04-17T07:07:26.514Z,40.90
2023-04-17T07:08:26.499Z,39.50
2023-04-17T07:09:26.454Z,39.70
2023-04-17T07:10:26.373Z,39.70
2023-04-17T07:11:26.327Z,37.10
2023-04-17T07:12:26.253Z,39.20
2023-04-17T07:13:26.159Z,39.80
2023-04-17T07:14:26.087Z,40.80
2023-04-17T07:15:26.072Z,39.20
2023-04-17T07:16:25.987Z,40.80
2023-04-17T07:17:26.024Z,38.40
2023-04-17T07:18:25.840Z,40.50
2023-04-17T07:19:25.775Z,41.70
2023-04-17T07:20:43.078Z,42.00
2023-04-17T07:21:25.650Z,41.60
2023-04-17T07:22:27.254Z,38.50
2023-04-17T07:23:25.556Z,37.70
2023-04-17T07:24:25.432Z,39.80
2023-04-17T07:25:25.387Z,39.00
2023-04-17T07:26:25.311Z,36.90
2023-04-17T07:27:25.303Z,34.50
2023-04-17T07:28:25.235Z,35.60
2023-04-17T07:29:25.152Z,36.20
2023-04-17T07:30:25.192Z,36.00
2023-04-17T07:31:25.057Z,36.60
2023-04-17T07:32:24.962Z,34.30
2023-04-17T07:33:24.896Z,33.60
2023-04-17T07:34:24.841Z,32.30
2023-04-17T07:35:24.719Z,31.60
2023-04-17T07:36:24.688Z,32.00
2023-04-17T07:37:24.650Z,30.70
2023-04-17T07:40:03.459Z,27.40
2023-04-17T07:41:04.392Z,27.40
2023-04-17T07:42:04.320Z,31.40
2023-04-17T07:43:04.242Z,30.50
2023-04-17T07:44:04.239Z,28.70
2023-04-17T07:45:04.128Z,28.00
2023-04-17T07:46:04.038Z,27.70
2023-04-17T07:47:04.029Z,30.30
2023-04-17T07:48:04.014Z,28.50
2023-04-17T07:49:03.853Z,27.50
2023-04-17T07:50:03.791Z,27.10
2023-04-17T07:51:03.752Z,26.60
2023-04-17T07:52:03.688Z,27.10
2023-04-17T07:53:03.625Z,25.60
2023-04-17T07:54:03.577Z,25.70
2023-04-17T07:55:03.497Z,24.70
2023-04-17T07:56:03.426Z,26.90
2023-04-17T07:57:03.384Z,26.20
2023-04-17T07:58:03.327Z,25.50
2023-04-17T07:59:03.276Z,25.40
2023-04-17T08:00:03.154Z,26.10
2023-04-17T08:01:03.123Z,27.20
2023-04-17T08:02:03.163Z,25.40
2023-04-17T08:03:03.235Z,26.20
2023-04-17T08:04:03.234Z,24.20
2023-04-17T08:05:02.971Z,23.80
2023-04-17T08:06:02.778Z,24.50
2023-04-17T08:07:02.757Z,24.30
2023-04-17T08:08:02.703Z,22.90
2023-04-17T08:09:02.922Z,24.00
2023-04-17T08:10:02.519Z,22.60
2023-04-17T08:11:02.459Z,22.30
2023-04-17T08:12:02.468Z,22.60
2023-04-17T08:13:02.363Z,21.80
2023-04-17T08:14:02.357Z,22.90
2023-04-17T08:15:02.251Z,22.90
2023-04-17T08:16:02.227Z,22.70
2023-04-17T08:17:02.166Z,21.20
2023-04-17T08:18:02.070Z,20.90
2023-04-17T08:19:01.998Z,21.70
2023-04-17T08:20:01.925Z,22.20
2023-04-17T08:21:01.905Z,21.60
2023-04-17T08:22:01.795Z,22.10
2023-04-17T08:23:01.734Z,23.50
2023-04-17T08:24:01.633Z,22.40
2023-04-17T08:25:01.640Z,22.50
2023-04-17T08:26:01.568Z,22.40
2023-04-17T08:27:01.526Z,24.00
2023-04-17T08:28:01.460Z,23.00
2023-04-17T08:29:01.386Z,21.50
2023-04-17T08:30:01.353Z,22.30
2023-04-17T08:31:01.324Z,19.90
2023-04-17T08:32:13.943Z,21.20
2023-04-17T08:34:14.891Z,21.60
2023-04-17T08:35:11.206Z,20.80
2023-04-17T08:36:11.234Z,20.00
2023-04-17T08:37:11.081Z,21.10
2023-04-17T08:38:10.993Z,20.70
2023-04-17T08:39:11.202Z,19.90
2023-04-17T08:40:10.862Z,19.30
2023-04-17T08:41:10.826Z,20.50
2023-04-17T08:42:14.600Z,19.10
2023-04-17T08:43:10.706Z,19.20
2023-04-17T08:44:10.616Z,18.40
2023-04-17T08:45:10.596Z,17.80
2023-04-17T08:46:10.539Z,17.90
2023-04-17T08:47:10.475Z,17.70
2023-04-17T08:48:10.503Z,19.10
2023-04-17T08:49:10.709Z,18.30
2023-04-17T08:50:10.292Z,17.60
2023-04-17T08:51:27.551Z,18.00
2023-04-17T08:52:10.132Z,18.40
2023-04-17T08:53:10.049Z,18.70
2023-04-17T08:54:10.046Z,18.80
2023-04-17T08:55:09.977Z,18.00
2023-04-17T08:56:09.890Z,17.90
2023-04-17T08:57:09.859Z,19.20
2023-04-17T08:58:09.765Z,19.30
2023-04-17T08:59:09.775Z,18.70
2023-04-17T09:00:09.639Z,18.50
2023-04-17T09:01:09.613Z,18.60
2023-04-17T09:02:09.649Z,19.10
2023-04-17T09:03:09.608Z,20.40
2023-04-17T09:04:09.776Z,20.00
2023-04-17T09:05:09.304Z,20.10
2023-04-17T09:06:09.261Z,18.70
2023-04-17T09:07:09.207Z,19.10
2023-04-17T09:08:09.122Z,16.50
2023-04-17T09:09:09.458Z,16.00
2023-04-17T09:10:09.050Z,15.90
2023-04-17T09:11:08.954Z,16.10
2023-04-17T09:12:08.919Z,16.80
2023-04-17T09:13:08.828Z,16.70
2023-04-17T09:14:08.800Z,16.50
2023-04-17T09:15:08.749Z,16.20
2023-04-17T09:16:08.748Z,16.60
2023-04-17T09:17:08.606Z,17.20
2023-04-17T09:18:08.603Z,16.20
2023-04-17T09:19:08.455Z,15.80
2023-04-17T09:20:08.407Z,15.40
2023-04-17T09:21:08.320Z,14.60
2023-04-17T09:22:08.276Z,14.70
2023-04-17T09:23:08.205Z,14.60
2023-04-17T09:24:08.150Z,14.20
2023-04-17T09:25:08.113Z,13.90
2023-04-17T09:26:08.001Z,14.60
2023-04-17T09:27:07.973Z,14.30
2023-04-17T09:28:07.904Z,14.50
2023-04-17T09:29:07.904Z,14.80
2023-04-17T09:30:07.808Z,15.10
2023-04-17T09:31:07.758Z,15.10
2023-04-17T09:32:07.679Z,15.70
2023-04-17T09:33:07.644Z,16.30
2023-04-17T09:34:07.658Z,15.70
2023-04-17T09:35:07.456Z,14.70
2023-04-17T09:36:07.455Z,15.70
2023-04-17T09:37:07.346Z,15.40
2023-04-17T09:38:07.372Z,15.50
2023-04-17T09:39:07.258Z,15.30
2023-04-17T09:40:07.142Z,15.10
2023-04-17T09:41:07.112Z,14.20
2023-04-17T09:42:07.062Z,15.40
2023-04-17T09:43:09.490Z,14.90
2023-04-17T09:44:06.940Z,14.40
2023-04-17T09:45:24.240Z,15.70
2023-04-17T09:46:06.834Z,15.10
2023-04-17T09:47:06.738Z,15.20
2023-04-17T09:48:06.732Z,15.40
2023-04-17T09:49:06.606Z,14.40
2023-04-17T09:50:06.576Z,14.40
2023-04-17T09:51:06.493Z,15.70
2023-04-17T09:52:06.422Z,14.40
2023-04-17T09:53:06.365Z,14.70
2023-04-17T09:54:06.300Z,15.40
2023-04-17T09:55:06.244Z,15.40
2023-04-17T09:56:06.157Z,13.50
2023-04-17T09:57:06.120Z,14.10
2023-04-17T09:58:06.047Z,13.20
2023-04-17T09:59:06.019Z,13.70
2023-04-17T10:00:05.920Z,13.20
2023-04-17T10:01:05.939Z,13.30
2023-04-17T10:02:05.899Z,14.10
2023-04-17T10:03:05.920Z,13.10
2023-04-17T10:04:05.926Z,14.30
2023-04-17T10:05:05.681Z,14.40
2023-04-17T10:06:05.527Z,12.80
2023-04-17T10:07:05.471Z,15.10
2023-04-17T10:08:05.402Z,13.90
2023-04-17T10:09:05.346Z,14.60
2023-04-17T10:10:05.323Z,13.60
2023-04-17T10:11:05.272Z,14.00
2023-04-17T10:12:05.190Z,13.50
2023-04-17T10:13:05.132Z,13.60
2023-04-17T10:14:05.089Z,14.60
2023-04-17T10:15:05.267Z,13.40
2023-04-17T10:16:04.974Z,14.70
2023-04-17T10:17:04.900Z,14.40
2023-04-17T10:18:04.881Z,14.10
2023-04-17T10:19:04.721Z,14.60
2023-04-17T10:20:04.700Z,14.70
2023-04-17T10:21:22.041Z,15.10
2023-04-17T10:22:04.543Z,13.80
2023-04-17T10:23:04.473Z,14.20
2023-04-17T10:24:04.438Z,12.80
2023-04-17T10:25:04.461Z,12.90
2023-04-17T10:26:04.289Z,14.00
2023-04-17T10:27:04.924Z,13.30
2023-04-17T10:28:04.212Z,13.80
2023-04-17T10:29:04.141Z,14.80
2023-04-17T10:30:04.052Z,14.60
2023-04-17T10:31:04.005Z,14.90
2023-04-17T10:32:04.010Z,14.00
2023-04-17T10:33:03.950Z,14.50
2023-04-17T10:34:03.860Z,13.90
2023-04-17T10:35:03.742Z,14.50
2023-04-17T10:36:03.684Z,14.50
2023-04-17T10:37:03.663Z,14.20
2023-04-17T10:38:03.577Z,14.00
2023-04-17T10:39:03.503Z,14.00
2023-04-17T10:40:03.482Z,13.90
2023-04-17T10:41:03.396Z,14.00
2023-04-17T10:42:03.348Z,14.00
2023-04-17T10:43:03.264Z,13.60
2023-04-17T10:44:03.201Z,13.70
2023-04-17T10:45:03.156Z,13.70
2023-04-17T10:46:03.260Z,13.90
2023-04-17T10:47:03.052Z,13.30
2023-04-17T10:48:02.992Z,13.40
2023-04-17T10:49:02.893Z,14.60
2023-04-17T10:50:02.862Z,13.10
2023-04-17T10:51:02.808Z,12.90
2023-04-17T10:52:02.704Z,13.90
2023-04-17T10:53:02.643Z,12.80
2023-04-17T10:54:02.556Z,13.50
2023-04-17T10:55:02.528Z,12.40
2023-04-17T10:56:02.461Z,12.80
2023-04-17T10:57:02.430Z,13.30
2023-04-17T10:58:02.470Z,12.80
2023-04-17T10:59:02.319Z,13.60
2023-04-17T11:00:02.212Z,13.20
2023-04-17T11:01:02.191Z,13.40
2023-04-17T11:02:02.194Z,13.30
2023-04-17T11:03:02.318Z,12.90
2023-04-17T11:04:02.047Z,13.00
2023-04-17T11:05:01.972Z,12.30
2023-04-17T11:06:01.842Z,11.80
2023-04-17T11:07:01.816Z,11.70
2023-04-17T11:08:01.720Z,11.70
2023-04-17T11:09:01.697Z,12.20
2023-04-17T11:10:01.619Z,12.90
2023-04-17T11:11:01.572Z,12.30
2023-04-17T11:12:01.789Z,12.50
2023-04-17T11:13:01.379Z,12.20
2023-04-17T11:14:01.393Z,12.90
2023-04-17T11:15:01.292Z,12.90
2023-04-17T11:16:01.215Z,12.30
2023-04-17T11:17:01.196Z,12.50
2023-04-17T11:18:01.146Z,12.70
2023-04-17T11:19:01.063Z,12.20
2023-04-17T11:20:00.945Z,12.60
2023-04-17T11:21:00.911Z,12.40
2023-04-17T11:22:00.848Z,12.80
2023-04-17T11:23:01.162Z,11.60
2023-04-17T11:24:00.752Z,11.90
2023-04-17T11:25:00.638Z,12.10
2023-04-17T11:26:00.622Z,12.50
2023-04-17T11:27:00.602Z,12.70
2023-04-17T11:28:00.492Z,12.20
2023-04-17T11:29:00.465Z,12.30
2023-04-17T11:30:00.356Z,32.30
2023-04-17T11:31:00.349Z,14.50
2023-04-17T11:32:00.208Z,14.50
2023-04-17T11:33:34.894Z,26.60
2023-04-17T11:34:00.127Z,15.20
2023-04-17T11:35:00.072Z,14.40
2023-04-17T11:36:00.016Z,13.00
2023-04-17T11:36:59.969Z,13.60
2023-04-17T11:37:59.858Z,16.80
2023-04-17T11:38:59.831Z,17.90
2023-04-17T11:39:59.712Z,13.70
2023-04-17T11:40:59.657Z,13.80
2023-04-17T11:41:59.627Z,12.40
2023-04-17T11:42:59.546Z,12.00
2023-04-17T11:43:59.478Z,12.50
2023-04-17T11:44:59.439Z,12.90
2023-04-17T11:45:59.335Z,12.70
2023-04-17T11:46:59.329Z,12.60
2023-04-17T11:47:59.302Z,12.90
2023-04-17T11:48:59.195Z,12.80
2023-04-17T11:49:59.088Z,13.10
2023-04-17T11:50:59.092Z,13.10
2023-04-17T11:51:58.998Z,13.70
2023-04-17T11:52:58.895Z,12.80
2023-04-17T11:53:58.884Z,13.60
2023-04-17T11:54:58.823Z,12.50
2023-04-17T11:55:58.735Z,12.90
2023-04-17T11:56:58.684Z,12.70
2023-04-17T11:57:58.636Z,12.70
2023-04-17T11:58:58.593Z,12.50
2023-04-17T11:59:58.489Z,12.90
2023-04-17T12:00:58.423Z,12.70
2023-04-17T12:01:58.388Z,13.10
2023-04-17T12:02:58.413Z,12.50
2023-04-17T12:03:58.409Z,11.90
2023-04-17T12:04:58.297Z,12.60
2023-04-17T12:05:58.242Z,12.50
2023-04-17T12:06:59.698Z,12.70
2023-04-17T12:07:58.004Z,12.30
2023-04-17T12:09:15.251Z,14.30
2023-04-17T12:09:58.029Z,12.90
2023-04-17T12:10:57.830Z,13.80
2023-04-17T12:11:57.718Z,13.50
2023-04-17T12:12:57.705Z,13.70
2023-04-17T12:13:57.620Z,12.40
2023-04-17T12:14:57.555Z,13.40
2023-04-17T12:15:57.518Z,12.70
2023-04-17T12:16:57.411Z,12.90
2023-04-17T12:17:57.414Z,13.50
2023-04-17T12:18:57.388Z,13.90
2023-04-17T12:19:57.279Z,12.60
2023-04-17T12:20:57.182Z,13.90
2023-04-17T12:21:57.122Z,14.20
2023-04-17T12:22:57.028Z,12.90
2023-04-17T12:23:56.971Z,14.00
2023-04-17T12:24:56.899Z,14.00
2023-04-17T12:25:56.841Z,14.20
2023-04-17T12:27:14.208Z,14.30
2023-04-17T12:27:56.724Z,13.80
2023-04-17T12:28:56.668Z,13.20
2023-04-17T12:29:56.600Z,13.20
2023-04-17T12:30:56.588Z,12.90
2023-04-17T12:31:56.583Z,12.60
2023-04-17T12:32:56.504Z,12.50
2023-04-17T12:33:56.378Z,12.70
2023-04-17T12:34:56.335Z,12.60
2023-04-17T12:35:56.269Z,13.10
2023-04-17T12:36:56.191Z,12.90
2023-04-17T12:37:56.117Z,12.60
2023-04-17T12:38:56.073Z,12.60
2023-04-17T12:39:56.021Z,24.30
2023-04-17T12:40:55.912Z,26.10
2023-04-17T12:41:55.874Z,16.80
2023-04-17T12:42:55.834Z,14.90
2023-04-17T12:43:55.746Z,14.70
2023-04-17T12:44:55.728Z,15.30
2023-04-17T12:45:55.670Z,13.20
2023-04-17T12:46:55.531Z,13.40
2023-04-17T12:47:55.504Z,13.20
2023-04-17T12:48:55.433Z,14.70
2023-04-17T12:49:55.347Z,14.10
2023-04-17T12:50:55.328Z,13.70
2023-04-17T12:51:55.280Z,13.90
2023-04-17T12:52:55.183Z,15.00
2023-04-17T12:53:55.128Z,14.40
2023-04-17T12:54:55.086Z,13.40
2023-04-17T12:55:54.979Z,13.50